sensor_id;sensor_type;location;lat;lon;timestamp;P1;durP1;ratioP1;P2;durP2;ratioP2
22851;SDS011;11592;45.460;9.240;2023-07-16T00:02:03;18.23;;;8.68;;
22851;SDS011;11592;45.460;9.240;2023-07-16T00:04:31;15.73;;;8.50;;
22851;SDS011;11592;45.460;9.240;2023-07-16T00:07:01;15.20;;;8.10;;
22851;SDS011;11592;45.460;9.240;2023-07-16T00:09:28;19.65;;;8.40;;
22851;SDS011;11592;45.460;9.240;2023-07-16T00:11:56;16.38;;;8.57;;
22851;SDS011;11592;45.460;9.240;2023-07-16T00:14:23;16.33;;;8.20;;
22851;SDS011;11592;45.460;9.240;2023-07-16T00:16:50;15.93;;;7.97;;
22851;SDS011;11592;45.460;9.240;2023-07-16T00:19:17;13.68;;;7.88;;
22851;SDS011;11592;45.460;9.240;2023-07-16T00:21:43;13.57;;;8.50;;
22851;SDS011;11592;45.460;9.240;2023-07-16T00:24:10;18.33;;;8.48;;
22851;SDS011;11592;45.460;9.240;2023-07-16T00:26:37;20.13;;;8.25;;
22851;SDS011;11592;45.460;9.240;2023-07-16T00:29:04;14.32;;;8.07;;
22851;SDS011;11592;45.460;9.240;2023-07-16T00:31:31;15.45;;;7.97;;
22851;SDS011;11592;45.460;9.240;2023-07-16T00:33:58;10.88;;;7.38;;
22851;SDS011;11592;45.460;9.240;2023-07-16T00:36:25;12.00;;;7.55;;
22851;SDS011;11592;45.460;9.240;2023-07-16T00:38:51;13.48;;;7.63;;
22851;SDS011;11592;45.460;9.240;2023-07-16T00:41:18;15.23;;;8.38;;
22851;SDS011;11592;45.460;9.240;2023-07-16T00:43:45;14.35;;;8.32;;
22851;SDS011;11592;45.460;9.240;2023-07-16T00:46:12;12.35;;;7.32;;
22851;SDS011;11592;45.460;9.240;2023-07-16T00:48:40;12.93;;;7.03;;
22851;SDS011;11592;45.460;9.240;2023-07-16T00:51:08;12.05;;;6.90;;
22851;SDS011;11592;45.460;9.240;2023-07-16T00:53:35;11.00;;;6.97;;
22851;SDS011;11592;45.460;9.240;2023-07-16T00:56:02;12.30;;;7.28;;
22851;SDS011;11592;45.460;9.240;2023-07-16T00:58:29;13.35;;;7.40;;
22851;SDS011;11592;45.460;9.240;2023-07-16T01:00:55;12.48;;;7.50;;
22851;SDS011;11592;45.460;9.240;2023-07-16T01:03:23;13.40;;;7.30;;
22851;SDS011;11592;45.460;9.240;2023-07-16T01:08:30;12.55;;;7.43;;
22851;SDS011;11592;45.460;9.240;2023-07-16T01:11:02;13.13;;;7.50;;
22851;SDS011;11592;45.460;9.240;2023-07-16T01:13:32;17.52;;;8.15;;
22851;SDS011;11592;45.460;9.240;2023-07-16T01:16:00;11.45;;;7.43;;
22851;SDS011;11592;45.460;9.240;2023-07-16T01:18:27;11.80;;;8.10;;
22851;SDS011;11592;45.460;9.240;2023-07-16T01:20:53;14.20;;;8.13;;
22851;SDS011;11592;45.460;9.240;2023-07-16T01:23:45;12.88;;;8.32;;
22851;SDS011;11592;45.460;9.240;2023-07-16T01:29:18;12.30;;;8.48;;
22851;SDS011;11592;45.460;9.240;2023-07-16T01:32:05;16.15;;;9.43;;
22851;SDS011;11592;45.460;9.240;2023-07-16T01:34:34;13.05;;;9.00;;
22851;SDS011;11592;45.460;9.240;2023-07-16T01:37:02;13.85;;;8.60;;
22851;SDS011;11592;45.460;9.240;2023-07-16T01:39:31;14.48;;;8.90;;
22851;SDS011;11592;45.460;9.240;2023-07-16T01:42:01;15.48;;;8.40;;
22851;SDS011;11592;45.460;9.240;2023-07-16T01:44:29;16.98;;;9.43;;
22851;SDS011;11592;45.460;9.240;2023-07-16T01:49:46;17.27;;;9.50;;
22851;SDS011;11592;45.460;9.240;2023-07-16T01:52:13;13.57;;;9.23;;
22851;SDS011;11592;45.460;9.240;2023-07-16T01:54:40;12.65;;;8.90;;
22851;SDS011;11592;45.460;9.240;2023-07-16T01:57:07;11.98;;;8.80;;
22851;SDS011;11592;45.460;9.240;2023-07-16T01:59:34;17.75;;;10.02;;
22851;SDS011;11592;45.460;9.240;2023-07-16T02:02:00;17.48;;;10.35;;
22851;SDS011;11592;45.460;9.240;2023-07-16T02:04:27;14.13;;;10.25;;
22851;SDS011;11592;45.460;9.240;2023-07-16T02:06:54;16.02;;;9.85;;
22851;SDS011;11592;45.460;9.240;2023-07-16T02:09:21;15.55;;;9.85;;
22851;SDS011;11592;45.460;9.240;2023-07-16T02:11:48;16.20;;;10.13;;
22851;SDS011;11592;45.460;9.240;2023-07-16T02:14:15;17.65;;;10.10;;
22851;SDS011;11592;45.460;9.240;2023-07-16T02:16:42;16.83;;;9.85;;
22851;SDS011;11592;45.460;9.240;2023-07-16T02:19:09;14.02;;;9.35;;
22851;SDS011;11592;45.460;9.240;2023-07-16T02:21:36;17.17;;;10.57;;
22851;SDS011;11592;45.460;9.240;2023-07-16T02:24:03;16.20;;;10.30;;
22851;SDS011;11592;45.460;9.240;2023-07-16T02:26:30;20.10;;;10.93;;
22851;SDS011;11592;45.460;9.240;2023-07-16T02:28:56;18.15;;;10.90;;
22851;SDS011;11592;45.460;9.240;2023-07-16T02:31:25;12.75;;;10.30;;
22851;SDS011;11592;45.460;9.240;2023-07-16T02:33:52;14.30;;;10.38;;
22851;SDS011;11592;45.460;9.240;2023-07-16T02:36:19;17.77;;;10.75;;
22851;SDS011;11592;45.460;9.240;2023-07-16T02:38:45;22.08;;;10.48;;
22851;SDS011;11592;45.460;9.240;2023-07-16T02:41:12;16.25;;;10.30;;
22851;SDS011;11592;45.460;9.240;2023-07-16T02:43:39;18.10;;;10.32;;
22851;SDS011;11592;45.460;9.240;2023-07-16T02:46:06;16.73;;;10.25;;
22851;SDS011;11592;45.460;9.240;2023-07-16T02:48:32;16.58;;;11.30;;
22851;SDS011;11592;45.460;9.240;2023-07-16T02:51:00;13.48;;;10.20;;
22851;SDS011;11592;45.460;9.240;2023-07-16T02:53:26;19.70;;;10.43;;
22851;SDS011;11592;45.460;9.240;2023-07-16T02:55:53;14.13;;;10.45;;
22851;SDS011;11592;45.460;9.240;2023-07-16T02:58:20;18.38;;;10.68;;
22851;SDS011;11592;45.460;9.240;2023-07-16T03:00:47;15.70;;;10.50;;
22851;SDS011;11592;45.460;9.240;2023-07-16T03:03:14;16.83;;;10.98;;
22851;SDS011;11592;45.460;9.240;2023-07-16T03:05:41;17.45;;;10.30;;
22851;SDS011;11592;45.460;9.240;2023-07-16T03:08:07;13.82;;;10.45;;
22851;SDS011;11592;45.460;9.240;2023-07-16T03:10:34;14.60;;;10.48;;
22851;SDS011;11592;45.460;9.240;2023-07-16T03:13:01;16.25;;;10.65;;
22851;SDS011;11592;45.460;9.240;2023-07-16T03:15:28;14.13;;;10.30;;
22851;SDS011;11592;45.460;9.240;2023-07-16T03:17:54;13.43;;;10.18;;
22851;SDS011;11592;45.460;9.240;2023-07-16T03:20:21;18.10;;;10.20;;
22851;SDS011;11592;45.460;9.240;2023-07-16T03:22:48;18.35;;;10.70;;
22851;SDS011;11592;45.460;9.240;2023-07-16T03:25:15;14.93;;;9.95;;
22851;SDS011;11592;45.460;9.240;2023-07-16T03:27:42;15.75;;;9.75;;
22851;SDS011;11592;45.460;9.240;2023-07-16T03:30:09;14.05;;;9.23;;
22851;SDS011;11592;45.460;9.240;2023-07-16T03:32:36;17.25;;;10.38;;
22851;SDS011;11592;45.460;9.240;2023-07-16T03:35:17;15.27;;;9.90;;
22851;SDS011;11592;45.460;9.240;2023-07-16T03:37:44;15.68;;;10.35;;
22851;SDS011;11592;45.460;9.240;2023-07-16T03:40:12;14.85;;;10.00;;
22851;SDS011;11592;45.460;9.240;2023-07-16T03:42:43;16.83;;;11.07;;
22851;SDS011;11592;45.460;9.240;2023-07-16T03:45:10;15.23;;;10.23;;
22851;SDS011;11592;45.460;9.240;2023-07-16T03:47:37;21.00;;;10.75;;
22851;SDS011;11592;45.460;9.240;2023-07-16T03:50:05;19.27;;;11.77;;
22851;SDS011;11592;45.460;9.240;2023-07-16T03:52:32;15.63;;;10.52;;
22851;SDS011;11592;45.460;9.240;2023-07-16T03:54:59;18.20;;;11.35;;
22851;SDS011;11592;45.460;9.240;2023-07-16T03:57:27;16.20;;;10.15;;
22851;SDS011;11592;45.460;9.240;2023-07-16T03:59:55;20.08;;;11.00;;
22851;SDS011;11592;45.460;9.240;2023-07-16T04:02:22;17.13;;;10.80;;
22851;SDS011;11592;45.460;9.240;2023-07-16T04:04:50;20.50;;;10.85;;
22851;SDS011;11592;45.460;9.240;2023-07-16T04:07:17;12.23;;;10.65;;
22851;SDS011;11592;45.460;9.240;2023-07-16T04:09:44;17.17;;;11.25;;
22851;SDS011;11592;45.460;9.240;2023-07-16T04:12:11;19.77;;;11.77;;
22851;SDS011;11592;45.460;9.240;2023-07-16T04:14:37;14.32;;;10.50;;
22851;SDS011;11592;45.460;9.240;2023-07-16T04:17:04;13.73;;;10.15;;
22851;SDS011;11592;45.460;9.240;2023-07-16T04:19:31;14.70;;;10.45;;
22851;SDS011;11592;45.460;9.240;2023-07-16T04:21:58;13.95;;;10.38;;
22851;SDS011;11592;45.460;9.240;2023-07-16T04:24:25;14.15;;;10.15;;
22851;SDS011;11592;45.460;9.240;2023-07-16T04:26:53;18.70;;;10.27;;
22851;SDS011;11592;45.460;9.240;2023-07-16T04:29:20;15.60;;;10.38;;
22851;SDS011;11592;45.460;9.240;2023-07-16T04:31:48;17.23;;;9.98;;
22851;SDS011;11592;45.460;9.240;2023-07-16T04:34:14;14.48;;;10.43;;
22851;SDS011;11592;45.460;9.240;2023-07-16T04:36:41;16.63;;;10.23;;
22851;SDS011;11592;45.460;9.240;2023-07-16T04:39:09;14.23;;;10.32;;
22851;SDS011;11592;45.460;9.240;2023-07-16T04:41:36;15.00;;;10.15;;
22851;SDS011;11592;45.460;9.240;2023-07-16T04:44:04;13.85;;;9.82;;
22851;SDS011;11592;45.460;9.240;2023-07-16T04:46:31;14.80;;;9.75;;
22851;SDS011;11592;45.460;9.240;2023-07-16T04:48:58;16.05;;;10.38;;
22851;SDS011;11592;45.460;9.240;2023-07-16T04:51:25;13.23;;;10.25;;
22851;SDS011;11592;45.460;9.240;2023-07-16T04:53:52;15.90;;;10.50;;
22851;SDS011;11592;45.460;9.240;2023-07-16T04:56:19;16.85;;;10.45;;
22851;SDS011;11592;45.460;9.240;2023-07-16T04:58:46;12.77;;;9.23;;
22851;SDS011;11592;45.460;9.240;2023-07-16T05:01:12;15.73;;;10.20;;
22851;SDS011;11592;45.460;9.240;2023-07-16T05:03:39;15.82;;;10.30;;
22851;SDS011;11592;45.460;9.240;2023-07-16T05:06:06;15.70;;;10.02;;
22851;SDS011;11592;45.460;9.240;2023-07-16T05:08:33;15.07;;;10.73;;
22851;SDS011;11592;45.460;9.240;2023-07-16T05:11:00;15.10;;;10.32;;
22851;SDS011;11592;45.460;9.240;2023-07-16T05:13:28;14.98;;;9.68;;
22851;SDS011;11592;45.460;9.240;2023-07-16T05:15:54;14.07;;;10.05;;
22851;SDS011;11592;45.460;9.240;2023-07-16T05:18:21;18.63;;;9.65;;
22851;SDS011;11592;45.460;9.240;2023-07-16T05:20:48;14.32;;;9.50;;
22851;SDS011;11592;45.460;9.240;2023-07-16T05:23:15;17.45;;;10.23;;
22851;SDS011;11592;45.460;9.240;2023-07-16T05:25:46;14.18;;;9.70;;
22851;SDS011;11592;45.460;9.240;2023-07-16T05:28:14;14.32;;;9.35;;
22851;SDS011;11592;45.460;9.240;2023-07-16T05:30:42;14.82;;;9.18;;
22851;SDS011;11592;45.460;9.240;2023-07-16T05:33:09;14.48;;;8.75;;
22851;SDS011;11592;45.460;9.240;2023-07-16T05:35:37;14.50;;;8.43;;
22851;SDS011;11592;45.460;9.240;2023-07-16T05:38:05;18.00;;;8.35;;
22851;SDS011;11592;45.460;9.240;2023-07-16T05:40:33;11.70;;;7.95;;
22851;SDS011;11592;45.460;9.240;2023-07-16T05:43:00;17.00;;;8.13;;
22851;SDS011;11592;45.460;9.240;2023-07-16T05:45:27;12.15;;;7.57;;
22851;SDS011;11592;45.460;9.240;2023-07-16T05:47:54;12.23;;;8.50;;
22851;SDS011;11592;45.460;9.240;2023-07-16T05:50:20;13.32;;;8.18;;
22851;SDS011;11592;45.460;9.240;2023-07-16T05:52:47;15.50;;;8.00;;
22851;SDS011;11592;45.460;9.240;2023-07-16T05:55:15;11.38;;;8.30;;
22851;SDS011;11592;45.460;9.240;2023-07-16T05:57:42;14.13;;;8.35;;
22851;SDS011;11592;45.460;9.240;2023-07-16T06:00:09;13.52;;;8.68;;
22851;SDS011;11592;45.460;9.240;2023-07-16T06:02:36;15.02;;;8.77;;
22851;SDS011;11592;45.460;9.240;2023-07-16T06:05:03;13.57;;;8.45;;
22851;SDS011;11592;45.460;9.240;2023-07-16T06:07:31;12.68;;;8.07;;
22851;SDS011;11592;45.460;9.240;2023-07-16T06:09:58;13.38;;;7.97;;
22851;SDS011;11592;45.460;9.240;2023-07-16T06:12:25;12.77;;;8.18;;
22851;SDS011;11592;45.460;9.240;2023-07-16T06:14:52;11.60;;;8.55;;
22851;SDS011;11592;45.460;9.240;2023-07-16T06:17:19;12.95;;;7.88;;
22851;SDS011;11592;45.460;9.240;2023-07-16T06:19:46;11.68;;;7.35;;
22851;SDS011;11592;45.460;9.240;2023-07-16T06:22:16;15.07;;;8.57;;
22851;SDS011;11592;45.460;9.240;2023-07-16T06:24:43;15.00;;;8.55;;
22851;SDS011;11592;45.460;9.240;2023-07-16T06:27:10;13.95;;;9.02;;
22851;SDS011;11592;45.460;9.240;2023-07-16T06:29:37;15.57;;;7.43;;
22851;SDS011;11592;45.460;9.240;2023-07-16T06:32:04;12.25;;;7.90;;
22851;SDS011;11592;45.460;9.240;2023-07-16T06:34:31;13.45;;;8.23;;
22851;SDS011;11592;45.460;9.240;2023-07-16T06:36:58;12.45;;;7.50;;
22851;SDS011;11592;45.460;9.240;2023-07-16T06:39:25;11.60;;;7.53;;
22851;SDS011;11592;45.460;9.240;2023-07-16T06:41:51;12.68;;;7.32;;
22851;SDS011;11592;45.460;9.240;2023-07-16T06:44:18;13.93;;;8.40;;
22851;SDS011;11592;45.460;9.240;2023-07-16T06:46:45;15.02;;;7.47;;
22851;SDS011;11592;45.460;9.240;2023-07-16T06:49:12;14.05;;;7.13;;
22851;SDS011;11592;45.460;9.240;2023-07-16T06:51:39;13.60;;;7.70;;
22851;SDS011;11592;45.460;9.240;2023-07-16T06:54:06;12.55;;;7.65;;
22851;SDS011;11592;45.460;9.240;2023-07-16T06:56:33;15.77;;;7.80;;
22851;SDS011;11592;45.460;9.240;2023-07-16T06:59:00;17.90;;;8.55;;
22851;SDS011;11592;45.460;9.240;2023-07-16T07:01:27;13.68;;;7.05;;
22851;SDS011;11592;45.460;9.240;2023-07-16T07:03:54;14.30;;;7.28;;
22851;SDS011;11592;45.460;9.240;2023-07-16T07:06:21;13.30;;;7.78;;
22851;SDS011;11592;45.460;9.240;2023-07-16T07:08:51;14.43;;;8.15;;
22851;SDS011;11592;45.460;9.240;2023-07-16T07:11:18;14.23;;;8.20;;
22851;SDS011;11592;45.460;9.240;2023-07-16T07:13:45;13.35;;;7.47;;
22851;SDS011;11592;45.460;9.240;2023-07-16T07:16:12;10.98;;;7.78;;
22851;SDS011;11592;45.460;9.240;2023-07-16T07:18:39;12.27;;;7.38;;
22851;SDS011;11592;45.460;9.240;2023-07-16T07:21:06;12.70;;;7.55;;
22851;SDS011;11592;45.460;9.240;2023-07-16T07:23:33;12.45;;;7.28;;
22851;SDS011;11592;45.460;9.240;2023-07-16T07:26:00;12.82;;;8.70;;
22851;SDS011;11592;45.460;9.240;2023-07-16T07:28:26;13.32;;;8.27;;
22851;SDS011;11592;45.460;9.240;2023-07-16T07:30:54;17.58;;;8.52;;
22851;SDS011;11592;45.460;9.240;2023-07-16T07:33:21;12.77;;;7.60;;
22851;SDS011;11592;45.460;9.240;2023-07-16T07:35:48;11.05;;;6.50;;
22851;SDS011;11592;45.460;9.240;2023-07-16T07:38:15;14.63;;;6.68;;
22851;SDS011;11592;45.460;9.240;2023-07-16T07:40:42;12.25;;;6.88;;
22851;SDS011;11592;45.460;9.240;2023-07-16T07:43:10;12.48;;;7.30;;
22851;SDS011;11592;45.460;9.240;2023-07-16T07:45:37;17.23;;;7.53;;
22851;SDS011;11592;45.460;9.240;2023-07-16T07:48:04;17.88;;;8.57;;
22851;SDS011;11592;45.460;9.240;2023-07-16T07:50:31;12.48;;;6.93;;
22851;SDS011;11592;45.460;9.240;2023-07-16T07:52:57;17.33;;;7.30;;
22851;SDS011;11592;45.460;9.240;2023-07-16T07:55:24;15.25;;;7.53;;
22851;SDS011;11592;45.460;9.240;2023-07-16T07:57:51;12.85;;;7.00;;
22851;SDS011;11592;45.460;9.240;2023-07-16T08:00:18;12.05;;;6.53;;
22851;SDS011;11592;45.460;9.240;2023-07-16T08:02:46;13.23;;;7.22;;
22851;SDS011;11592;45.460;9.240;2023-07-16T08:05:13;13.20;;;7.75;;
22851;SDS011;11592;45.460;9.240;2023-07-16T08:07:40;11.00;;;6.80;;
22851;SDS011;11592;45.460;9.240;2023-07-16T08:10:06;12.43;;;7.57;;
22851;SDS011;11592;45.460;9.240;2023-07-16T08:12:33;14.15;;;7.03;;
22851;SDS011;11592;45.460;9.240;2023-07-16T08:15:00;12.70;;;6.78;;
22851;SDS011;11592;45.460;9.240;2023-07-16T08:17:27;13.18;;;6.65;;
22851;SDS011;11592;45.460;9.240;2023-07-16T08:19:54;12.82;;;7.50;;
22851;SDS011;11592;45.460;9.240;2023-07-16T08:22:21;12.90;;;7.47;;
22851;SDS011;11592;45.460;9.240;2023-07-16T08:24:50;13.27;;;6.95;;
22851;SDS011;11592;45.460;9.240;2023-07-16T08:27:18;14.30;;;7.35;;
22851;SDS011;11592;45.460;9.240;2023-07-16T08:29:45;14.77;;;7.25;;
22851;SDS011;11592;45.460;9.240;2023-07-16T08:32:12;12.15;;;7.07;;
22851;SDS011;11592;45.460;9.240;2023-07-16T08:34:39;11.57;;;7.43;;
22851;SDS011;11592;45.460;9.240;2023-07-16T08:37:06;12.40;;;7.30;;
22851;SDS011;11592;45.460;9.240;2023-07-16T08:39:33;15.50;;;6.88;;
22851;SDS011;11592;45.460;9.240;2023-07-16T08:42:00;12.95;;;6.97;;
22851;SDS011;11592;45.460;9.240;2023-07-16T08:44:28;16.92;;;7.50;;
22851;SDS011;11592;45.460;9.240;2023-07-16T08:46:56;11.48;;;7.60;;
22851;SDS011;11592;45.460;9.240;2023-07-16T08:49:23;14.90;;;7.47;;
22851;SDS011;11592;45.460;9.240;2023-07-16T08:51:51;13.88;;;6.95;;
22851;SDS011;11592;45.460;9.240;2023-07-16T08:54:20;11.77;;;7.95;;
22851;SDS011;11592;45.460;9.240;2023-07-16T08:56:49;13.02;;;6.57;;
22851;SDS011;11592;45.460;9.240;2023-07-16T08:59:17;11.98;;;6.85;;
22851;SDS011;11592;45.460;9.240;2023-07-16T09:01:47;15.40;;;6.85;;
22851;SDS011;11592;45.460;9.240;2023-07-16T09:04:15;12.88;;;6.75;;
22851;SDS011;11592;45.460;9.240;2023-07-16T09:06:42;12.38;;;7.30;;
22851;SDS011;11592;45.460;9.240;2023-07-16T09:09:19;14.07;;;6.95;;
22851;SDS011;11592;45.460;9.240;2023-07-16T09:11:48;10.90;;;7.30;;
22851;SDS011;11592;45.460;9.240;2023-07-16T09:14:19;14.40;;;7.00;;
22851;SDS011;11592;45.460;9.240;2023-07-16T09:16:52;24.70;;;12.75;;
22851;SDS011;11592;45.460;9.240;2023-07-16T09:19:19;9.32;;;6.47;;
22851;SDS011;11592;45.460;9.240;2023-07-16T09:21:49;13.75;;;7.07;;
22851;SDS011;11592;45.460;9.240;2023-07-16T09:24:17;13.57;;;7.05;;
22851;SDS011;11592;45.460;9.240;2023-07-16T09:26:50;13.13;;;6.68;;
22851;SDS011;11592;45.460;9.240;2023-07-16T09:29:18;13.27;;;7.30;;
22851;SDS011;11592;45.460;9.240;2023-07-16T09:31:59;12.63;;;6.90;;
22851;SDS011;11592;45.460;9.240;2023-07-16T09:34:27;12.48;;;6.88;;
22851;SDS011;11592;45.460;9.240;2023-07-16T09:36:58;13.98;;;6.63;;
22851;SDS011;11592;45.460;9.240;2023-07-16T09:39:26;13.48;;;7.45;;
22851;SDS011;11592;45.460;9.240;2023-07-16T09:41:53;12.63;;;6.43;;
22851;SDS011;11592;45.460;9.240;2023-07-16T09:44:23;15.63;;;7.38;;
22851;SDS011;11592;45.460;9.240;2023-07-16T09:46:50;12.00;;;7.10;;
22851;SDS011;11592;45.460;9.240;2023-07-16T09:49:17;9.38;;;6.65;;
22851;SDS011;11592;45.460;9.240;2023-07-16T09:51:44;12.63;;;7.43;;
22851;SDS011;11592;45.460;9.240;2023-07-16T09:54:14;10.38;;;6.70;;
22851;SDS011;11592;45.460;9.240;2023-07-16T09:56:43;15.75;;;6.90;;
22851;SDS011;11592;45.460;9.240;2023-07-16T09:59:14;14.98;;;6.93;;
22851;SDS011;11592;45.460;9.240;2023-07-16T10:01:42;10.15;;;6.57;;
22851;SDS011;11592;45.460;9.240;2023-07-16T10:04:13;14.85;;;7.82;;
22851;SDS011;11592;45.460;9.240;2023-07-16T10:12:35;12.48;;;7.03;;
22851;SDS011;11592;45.460;9.240;2023-07-16T10:14:55;12.13;;;6.43;;
22851;SDS011;11592;45.460;9.240;2023-07-16T10:17:23;12.98;;;6.47;;
22851;SDS011;11592;45.460;9.240;2023-07-16T10:22:31;13.52;;;6.63;;
22851;SDS011;11592;45.460;9.240;2023-07-16T10:25:07;10.75;;;6.50;;
22851;SDS011;11592;45.460;9.240;2023-07-16T10:27:44;18.55;;;7.10;;
22851;SDS011;11592;45.460;9.240;2023-07-16T10:30:12;11.00;;;6.70;;
22851;SDS011;11592;45.460;9.240;2023-07-16T10:32:39;11.80;;;6.90;;
22851;SDS011;11592;45.460;9.240;2023-07-16T10:35:06;14.35;;;6.97;;
22851;SDS011;11592;45.460;9.240;2023-07-16T10:37:37;11.25;;;6.60;;
22851;SDS011;11592;45.460;9.240;2023-07-16T10:40:05;12.55;;;6.97;;
22851;SDS011;11592;45.460;9.240;2023-07-16T10:42:37;13.35;;;6.70;;
22851;SDS011;11592;45.460;9.240;2023-07-16T10:45:06;10.95;;;6.50;;
22851;SDS011;11592;45.460;9.240;2023-07-16T10:47:34;11.82;;;6.20;;
22851;SDS011;11592;45.460;9.240;2023-07-16T10:50:06;13.60;;;6.28;;
22851;SDS011;11592;45.460;9.240;2023-07-16T10:52:35;9.63;;;6.03;;
22851;SDS011;11592;45.460;9.240;2023-07-16T10:55:06;13.98;;;7.35;;
22851;SDS011;11592;45.460;9.240;2023-07-16T10:57:33;13.45;;;7.05;;
22851;SDS011;11592;45.460;9.240;2023-07-16T11:00:01;11.25;;;6.47;;
22851;SDS011;11592;45.460;9.240;2023-07-16T11:02:30;9.95;;;6.57;;
22851;SDS011;11592;45.460;9.240;2023-07-16T11:04:57;20.85;;;6.93;;
22851;SDS011;11592;45.460;9.240;2023-07-16T11:07:24;15.55;;;7.13;;
22851;SDS011;11592;45.460;9.240;2023-07-16T11:09:53;9.75;;;6.32;;
22851;SDS011;11592;45.460;9.240;2023-07-16T11:12:21;9.15;;;6.30;;
22851;SDS011;11592;45.460;9.240;2023-07-16T11:14:50;10.05;;;6.07;;
22851;SDS011;11592;45.460;9.240;2023-07-16T11:17:19;11.48;;;6.40;;
22851;SDS011;11592;45.460;9.240;2023-07-16T11:19:49;9.27;;;6.03;;
22851;SDS011;11592;45.460;9.240;2023-07-16T11:22:17;14.57;;;6.93;;
22851;SDS011;11592;45.460;9.240;2023-07-16T11:24:45;12.00;;;5.97;;
22851;SDS011;11592;45.460;9.240;2023-07-16T11:27:13;12.45;;;5.70;;
22851;SDS011;11592;45.460;9.240;2023-07-16T11:29:56;11.68;;;6.00;;
22851;SDS011;11592;45.460;9.240;2023-07-16T11:32:32;9.10;;;5.75;;
22851;SDS011;11592;45.460;9.240;2023-07-16T11:35:02;9.70;;;5.38;;
22851;SDS011;11592;45.460;9.240;2023-07-16T11:37:30;11.55;;;5.30;;
22851;SDS011;11592;45.460;9.240;2023-07-16T11:40:01;10.63;;;5.60;;
22851;SDS011;11592;45.460;9.240;2023-07-16T11:42:38;10.63;;;5.30;;
22851;SDS011;11592;45.460;9.240;2023-07-16T11:45:14;9.40;;;5.35;;
22851;SDS011;11592;45.460;9.240;2023-07-16T11:47:43;13.27;;;5.25;;
22851;SDS011;11592;45.460;9.240;2023-07-16T11:50:10;7.82;;;4.80;;
22851;SDS011;11592;45.460;9.240;2023-07-16T11:52:38;7.60;;;4.00;;
22851;SDS011;11592;45.460;9.240;2023-07-16T11:55:05;10.90;;;4.68;;
22851;SDS011;11592;45.460;9.240;2023-07-16T11:57:33;8.95;;;4.53;;
22851;SDS011;11592;45.460;9.240;2023-07-16T12:00:00;7.30;;;4.45;;
22851;SDS011;11592;45.460;9.240;2023-07-16T12:02:29;10.02;;;4.60;;
22851;SDS011;11592;45.460;9.240;2023-07-16T12:04:56;6.72;;;4.20;;
22851;SDS011;11592;45.460;9.240;2023-07-16T12:07:30;8.30;;;4.25;;
22851;SDS011;11592;45.460;9.240;2023-07-16T12:10:00;5.80;;;3.70;;
22851;SDS011;11592;45.460;9.240;2023-07-16T12:12:28;9.45;;;4.40;;
22851;SDS011;11592;45.460;9.240;2023-07-16T12:14:55;9.27;;;4.05;;
22851;SDS011;11592;45.460;9.240;2023-07-16T12:17:22;9.80;;;4.18;;
22851;SDS011;11592;45.460;9.240;2023-07-16T12:19:49;7.85;;;4.00;;
22851;SDS011;11592;45.460;9.240;2023-07-16T12:22:17;8.15;;;4.43;;
22851;SDS011;11592;45.460;9.240;2023-07-16T12:24:46;9.00;;;4.70;;
22851;SDS011;11592;45.460;9.240;2023-07-16T12:27:14;11.27;;;4.80;;
22851;SDS011;11592;45.460;9.240;2023-07-16T12:29:41;9.35;;;4.72;;
22851;SDS011;11592;45.460;9.240;2023-07-16T12:32:10;8.00;;;4.28;;
22851;SDS011;11592;45.460;9.240;2023-07-16T12:34:36;6.97;;;4.22;;
22851;SDS011;11592;45.460;9.240;2023-07-16T12:37:03;11.95;;;5.22;;
22851;SDS011;11592;45.460;9.240;2023-07-16T12:39:30;6.68;;;4.63;;
22851;SDS011;11592;45.460;9.240;2023-07-16T12:41:57;12.45;;;5.18;;
22851;SDS011;11592;45.460;9.240;2023-07-16T12:44:24;8.70;;;4.97;;
22851;SDS011;11592;45.460;9.240;2023-07-16T12:46:51;13.90;;;4.80;;
22851;SDS011;11592;45.460;9.240;2023-07-16T12:49:19;7.97;;;4.78;;
22851;SDS011;11592;45.460;9.240;2023-07-16T12:51:45;8.35;;;4.90;;
22851;SDS011;11592;45.460;9.240;2023-07-16T12:54:12;11.05;;;4.93;;
22851;SDS011;11592;45.460;9.240;2023-07-16T12:56:39;7.78;;;4.43;;
22851;SDS011;11592;45.460;9.240;2023-07-16T12:59:06;10.00;;;4.88;;
22851;SDS011;11592;45.460;9.240;2023-07-16T13:01:33;9.77;;;5.35;;
22851;SDS011;11592;45.460;9.240;2023-07-16T13:04:00;8.35;;;5.00;;
22851;SDS011;11592;45.460;9.240;2023-07-16T13:06:27;13.50;;;4.75;;
22851;SDS011;11592;45.460;9.240;2023-07-16T13:08:54;7.28;;;4.43;;
22851;SDS011;11592;45.460;9.240;2023-07-16T13:11:22;12.77;;;4.75;;
22851;SDS011;11592;45.460;9.240;2023-07-16T13:13:48;10.38;;;4.38;;
22851;SDS011;11592;45.460;9.240;2023-07-16T13:16:15;7.80;;;3.80;;
22851;SDS011;11592;45.460;9.240;2023-07-16T13:18:42;4.60;;;3.53;;
22851;SDS011;11592;45.460;9.240;2023-07-16T13:21:09;8.25;;;3.92;;
22851;SDS011;11592;45.460;9.240;2023-07-16T13:23:36;8.73;;;4.00;;
22851;SDS011;11592;45.460;9.240;2023-07-16T13:26:03;7.97;;;3.40;;
22851;SDS011;11592;45.460;9.240;2023-07-16T13:28:29;11.40;;;3.53;;
22851;SDS011;11592;45.460;9.240;2023-07-16T13:30:56;18.05;;;4.30;;
22851;SDS011;11592;45.460;9.240;2023-07-16T13:33:23;9.85;;;3.50;;
22851;SDS011;11592;45.460;9.240;2023-07-16T13:35:50;9.23;;;3.65;;
22851;SDS011;11592;45.460;9.240;2023-07-16T13:38:17;10.23;;;3.85;;
22851;SDS011;11592;45.460;9.240;2023-07-16T13:40:44;7.97;;;3.40;;
22851;SDS011;11592;45.460;9.240;2023-07-16T13:43:10;7.40;;;3.72;;
22851;SDS011;11592;45.460;9.240;2023-07-16T13:45:38;9.93;;;3.83;;
22851;SDS011;11592;45.460;9.240;2023-07-16T13:48:05;12.95;;;4.80;;
22851;SDS011;11592;45.460;9.240;2023-07-16T13:50:32;9.30;;;3.95;;
22851;SDS011;11592;45.460;9.240;2023-07-16T13:52:59;7.85;;;3.67;;
22851;SDS011;11592;45.460;9.240;2023-07-16T13:55:28;7.72;;;3.22;;
22851;SDS011;11592;45.460;9.240;2023-07-16T13:57:57;6.50;;;3.42;;
22851;SDS011;11592;45.460;9.240;2023-07-16T14:00:24;6.57;;;3.58;;
22851;SDS011;11592;45.460;9.240;2023-07-16T14:02:51;8.35;;;3.88;;
22851;SDS011;11592;45.460;9.240;2023-07-16T14:05:18;8.80;;;3.65;;
22851;SDS011;11592;45.460;9.240;2023-07-16T14:07:46;8.13;;;3.70;;
22851;SDS011;11592;45.460;9.240;2023-07-16T14:10:13;8.23;;;4.15;;
22851;SDS011;11592;45.460;9.240;2023-07-16T14:12:39;7.97;;;4.15;;
22851;SDS011;11592;45.460;9.240;2023-07-16T14:15:06;12.32;;;4.10;;
22851;SDS011;11592;45.460;9.240;2023-07-16T14:17:33;11.00;;;3.55;;
22851;SDS011;11592;45.460;9.240;2023-07-16T14:20:00;8.30;;;3.70;;
22851;SDS011;11592;45.460;9.240;2023-07-16T14:22:27;13.50;;;4.22;;
22851;SDS011;11592;45.460;9.240;2023-07-16T14:24:54;10.70;;;3.60;;
22851;SDS011;11592;45.460;9.240;2023-07-16T14:27:21;15.57;;;4.72;;
22851;SDS011;11592;45.460;9.240;2023-07-16T14:29:49;11.85;;;3.78;;
22851;SDS011;11592;45.460;9.240;2023-07-16T14:32:31;9.00;;;4.20;;
22851;SDS011;11592;45.460;9.240;2023-07-16T14:34:58;11.73;;;4.22;;
22851;SDS011;11592;45.460;9.240;2023-07-16T14:37:26;6.40;;;4.43;;
22851;SDS011;11592;45.460;9.240;2023-07-16T14:39:53;8.13;;;3.90;;
22851;SDS011;11592;45.460;9.240;2023-07-16T14:42:20;5.78;;;3.33;;
22851;SDS011;11592;45.460;9.240;2023-07-16T14:44:47;9.45;;;3.90;;
22851;SDS011;11592;45.460;9.240;2023-07-16T14:47:14;10.43;;;3.92;;
22851;SDS011;11592;45.460;9.240;2023-07-16T14:49:41;6.75;;;3.80;;
22851;SDS011;11592;45.460;9.240;2023-07-16T14:52:08;11.98;;;4.78;;
22851;SDS011;11592;45.460;9.240;2023-07-16T14:54:35;8.82;;;4.20;;